KMZZ/MZZ METAR and TAF weather

Enter ICAO airport designator
Station Type Date Time Source
KMZZ METAR 2020/01/18 12:55 UTC NOAA

KMZZ 181255Z AUTO 19016G20KT 7SM BKN013 OVC019 02/02 A2987 RMK AO2 T00150015


Station Type Date Time Source
KMZZ Decoded METAR 2020/01/18 12:55 UTC NOAA

Station name not available
Jan 18, 2020 - 07:55 AM EST / 2020.01.18 1255 UTC
Wind: from the S (190 degrees) at 18 MPH (16 KT) gusting to 23 MPH (20 KT):0
Visibility: 7 mile(s):0
Sky conditions: overcast
Temperature: 34.7 F (1.5 C)
Windchill: 24 F (-4 C):1
Dew Point: 34.7 F (1.5 C)
Relative Humidity: 100%
Pressure (altimeter): 29.87 in. Hg (1011 hPa)
ob: KMZZ 181255Z AUTO 19016G20KT 7SM BKN013 OVC019 02/02 A2987 RMK AO2 T00150015
cycle: 13

Station Type Date Time Source
KMZZ TAF UTC NOAA

Error!

Example: see airport list